• Join FlightAware (Why Join?)
  • Login
  • US Flag 
Gobble Gobble! 
02:29PM EST


 

Airport Tracker/Info


-or-


 

Live Flight TrackerFlight Track Log ✈ RPA3321 ✈ 21-Jun-2013 ✈ KALB - KDCA

Flight Track Log - Related Links

Times and Time Zones

All times are in EDT time to prevent confusion due to time zone crossing. See the RPA3321 flight status page for this flight to view local times or setup timezone preferences in your user account.

Time Position Orientation Groundspeed Altitude Reporting Facility
EDT Latitude Longitude Course Direction KTS MPH feet Rate Location/Type
05:46AM 42.7672 -73.8061 169° South 152 175 1,400  Level Boston Center
05:46AM 42.7922 -73.8094 354° North 167 192 2,500 2,460 Climbing Boston Center
05:47AM 42.8353 -73.8700 314° West 238 274 5,200 2,580 Climbing Boston Center
05:48AM 42.8517 -73.9014 305° West 247 284 6,500 2,460 Climbing Boston Center
05:49AM 42.3795 -74.1292 170° South  Level Estimated
05:49AM 42.8903 -73.9731 306° West 247 284 9,000  Level Boston Center
05:50AM 42.2870 -74.2104 180° South  Level Estimated
05:50AM 42.9369 -74.0567 307° West 247 284 10,700  Level Boston Center
05:51AM 42.1944 -74.2914 169° South  Level Estimated
05:51AM 42.9817 -74.1372 307° West 277 319 12,200  Level Boston Center
05:52AM 43.0406 -74.2383 309° West 301 346 13,800 1,500 Climbing Boston Center
05:53AM 43.0683 -74.3300 293° West 296 341 15,200 1,500 Climbing Boston Center
05:54AM 42.9842 -74.3700 199° South 217 250 16,800 1,320 Climbing Boston Center
05:55AM 42.8997 -74.3136 154° Southeast 352 405 17,900 1,200 Climbing Boston Center
05:56AM 42.8047 -74.2542 155° Southeast 362 417 19,300 1,440 Climbing Boston Center
05:57AM 42.7036 -74.1947 157° South 376 433 20,800 1,500 Climbing Boston Center
05:58AM 42.6025 -74.1269 154° Southeast 398 458 22,300 1,500 Climbing Boston Center
05:59AM 42.4964 -74.1239 179° South 383 441 23,800 1,440 Climbing Boston Center
06:00AM 42.3833 -74.1433 187° South 392 451 25,200 1,440 Climbing Boston Center
06:01AM 42.2706 -74.1628 187° South 403 464 26,700 1,380 Climbing Boston Center
06:02AM 42.1578 -74.1822 187° South 408 470 28,000 600 Climbing Boston Center
06:03AM 42.0428 -74.2014 187° South 413 475 28,000  Level Boston Center
06:04AM 41.9258 -74.2203 187° South 413 475 28,000  Level Boston Center
06:06AM 41.6975 -74.2547 186° South 413 475 28,000  Level New York Center
06:07AM 41.5867 -74.2711 186° South 413 475 28,000  Level New York Center
06:08AM 41.4778 -74.2903 188° South 405 466 28,000  Level New York Center
06:09AM 41.3669 -74.3094 187° South 405 466 28,000  Level New York Center
06:10AM 41.2581 -74.3231 185° South 421 484 28,000  Level New York Center
06:11AM 41.1450 -74.3419 187° South 427 491 28,000  Level New York Center
06:12AM 41.0300 -74.3606 187° South 427 491 28,000  Level New York Center
06:13AM 40.9128 -74.3792 187° South 427 491 28,000  Level New York Center
06:14AM 40.7994 -74.4086 191° South 427 491 28,000 -60 Level New York Center
06:15AM 40.7211 -74.5142 226° Southwest 393 452 27,900 -540 Descending New York Center
06:16AM 40.6528 -74.6278 232° Southwest 393 452 26,900 -1,020 Descending New York Center
06:17AM 40.5822 -74.7442 231° Southwest 398 458 25,900 -1,020 Descending New York Center
06:18AM 40.5122 -74.8439 227° Southwest 398 458 24,900 -960 Descending New York Center
06:19AM 40.4442 -74.9408 227° Southwest 386 444 24,000 -900 Descending New York Center
06:20AM 40.3761 -75.0400 228° Southwest 376 433 23,200 -1,440 Descending New York Center
06:21AM 40.3058 -75.1339 226° Southwest 370 426 21,100 -2,100 Descending New York Center
06:22AM 40.2311 -75.2378 227° Southwest 370 426 19,000 -1,080 Descending New York Center
06:23AM 40.1650 -75.3286 226° Southwest 356 410 19,000  Level New York Center
06:24AM 40.1011 -75.4194 227° Southwest 351 404 19,000  Level New York Center
06:25AM 40.0372 -75.5072 226° Southwest 351 404 19,000  Level New York Center
06:26AM 39.9708 -75.6003 227° Southwest 351 404 19,000  Level New York Center
06:27AM 39.9133 -75.6831 228° Southwest 351 404 19,000  Level New York Center
06:28AM 39.8442 -75.7917 230° Southwest 351 404 19,000  Level New York Center
06:29AM 39.7836 -75.8875 231° Southwest 358 412 19,000 -360 Level New York Center
06:31AM 39.6333 -76.1167 230° Southwest 351 404 17,800 -1,080 Descending Potomac TRACON
06:32AM 39.5667 -76.2167 229° Southwest 344 396 15,500 -2,040 Descending Potomac TRACON
06:33AM 39.5167 -76.3000 232° Southwest 332 382 14,000 -1,740 Descending Potomac TRACON
06:34AM 39.4667 -76.4000 237° Southwest 328 377 12,300 -1,080 Descending Potomac TRACON
06:35AM 39.4000 -76.4667 218° Southwest 321 369 12,000 -180 Descending Potomac TRACON
06:36AM 39.3333 -76.5167 210° Southwest 323 372 12,000 -180 Level Potomac TRACON
06:37AM 39.2500 -76.5833 212° Southwest 324 373 11,700 -1,020 Descending Potomac TRACON
06:38AM 39.1833 -76.6500 218° Southwest 305 351 10,000 -900 Descending Potomac TRACON
06:39AM 39.1333 -76.7167 226° Southwest 290 334 10,000  Level Potomac TRACON
06:40AM 39.0667 -76.7833 218° Southwest 288 331 10,000 -720 Level Potomac TRACON
06:41AM 39.0167 -76.8500 226° Southwest 287 330 8,600 -1,620 Descending Potomac TRACON
06:42AM 38.9667 -76.9333 232° Southwest 280 322 7,000 -1,380 Descending Potomac TRACON
06:43AM 38.9833 -77.0167 284° West 271 312 6,000 -660 Descending Potomac TRACON
06:44AM 39.0167 -77.0833 303° West 197 227 5,700 -840 Descending Potomac TRACON
06:45AM 39.0500 -77.1333 311° West 191 220 4,400 -1,260 Descending Potomac TRACON
06:46AM 39.0333 -77.1833 247° West 185 213 3,200 -900 Descending Potomac TRACON
06:47AM 38.9833 -77.1667 165° South 174 200 2,600 -600 Descending Potomac TRACON
06:48AM 38.9500 -77.1333 142° Southeast 172 198 2,100 -540 Descending Potomac TRACON